Terminal Aerodrome Forecast
Issued by NWS

Home | Current Version | Previous Version | Text Only | Print | Product List | Glossary On
Versions: 1 2 3 4 5 6 7 8 9 10 11 12 13 14 15 16 17 18 19
000
FTUS41 KPBZ 230525
TAFHLG
TAF
KHLG 230525Z 2306/2406 07008KT P6SM VCSH OVC040
     FM230900 06011G19KT 6SM -RA BR OVC020
     FM231400 06013G22KT 3SM -RA BR OVC008
     FM232000 06012KT 3SM -RA OVC006=

USA.gov is the U.S. government's official web portal to all federal, state and local government web resources and services.